Strona główna
METAR-TAF:

METAR-TAF

Lotnisko :

Port Hawkesbury, Nowa Szkocja, Kanada

Szerokość geograficzna: 45-40N, Długość geograficzna: 061-23W, wysokość: 114 m

Aktualna obserwacja pogody

Raport powstał 46 minut temu, godzina 21:00 UTC
Wiatr 6 kt od zachód
Temperatura 6°C
Wilgotność 52%
Ciśnienie 1002 hPa
Widzialność: 14.5 km
Rozproszone chmury na wysokości 6000 ft
Przerywane chmury na wysokości 8100 ft

METAR: CYPD 062100Z AUTO 26006KT 9SM SCT060 BKN081 06/M03 A2959 RMK SLP027

czas: 18:46 (21:46 UTC)


TAF: brakujący

Obserwacja i prognoza pogody dla ponad 4000 lotnisk (raport METAR i TAF).

Dostępne stacje oznaczono żółtymi i czerwonymi punktami na mapie.

Najedź kursorem aby zobaczyć nazwę stacji.

Kliknij aby zobaczyć obserwacje i prognozy pogody.

Aby zmienić mapę: kliknij na zielony przycisk z czarnym krzyżykiem, aby powiększyć; na zielony przycisk z myślnikiem, aby pomniejszyć; na zielone strzałki, aby przejść do map sąsiednich.


METAR-TAF: